METAR Data
IDs: Format: Raw Decoded Include TAF

Data at: 1357 UTC 21 Apr 2021

METAR for:KMUT (Muscatine Muni, IA, US)
Text:KMUT 211355Z AUTO 32005KT 10SM CLR 03/M06 A3020 RMK AO2
Temperature: 3.0°C ( 37°F)
Dewpoint: -6.0°C ( 21°F) [RH = 52%]
Pressure (altimeter):30.20 inches Hg (1022.8 mb)
Winds:from the NW (320 degrees) at 6 MPH (5 knots; 2.6 m/s)
Visibility:10 or more sm (16+ km)
Ceiling:at least 12,000 feet AGL
Clouds:sky clear below 12,000 feet AGL
QC Flag:automated observation with no human augmentation